Time;durP1;ratioP1;P1;durP2;ratioP2;P2;SDS_P1;SDS_P2;PMS_P1;PMS_P2;Temp;Humidity;BMP_temperature;BMP_pressure;BME280_temperature;BME280_humidity;BME280_pressure;Samples;Min_cycle;Max_cycle;Signal;HPM_P1;HPM_P2
2022/02/10 09:06:23;;;;;;;19.23;10.20;;;;;;;0.99;100.00;99196.95;1735157;82;21014;-79
2022/02/10 09:16:50;;;;;;;18.83;9.50;;;;;;;1.02;100.00;99182.06;1758452;81;21045;-77
2022/02/10 10:02:18;;;;;;;27.23;15.90;;;;;;;0.86;100.00;99133.28;1686021;84;21055;-78
2022/02/10 10:05:10;;;;;;;26.60;14.33;;;;;;;0.89;100.00;99126.87;1700644;84;21134;-79
2022/02/10 10:07:36;;;;;;;29.20;17.77;;;;;;;0.92;100.00;99125.25;1675348;85;21076;-82
2022/02/10 10:15:44;;;;;;;27.40;16.40;;;;;;;0.97;100.00;99113.72;1583011;90;21161;-79
2022/02/10 10:21:13;;;;;;;21.80;12.80;;;;;;;1.07;100.00;99098.64;1589698;89;21057;-79
2022/02/10 10:23:48;;;;;;;23.50;12.70;;;;;;;1.11;100.00;99100.55;1552890;92;21101;-81
2022/02/10 10:51:08;;;;;;;37.07;23.40;;;;;;;1.35;100.00;99067.41;1525770;91;21504;-79
2022/02/10 10:53:37;;;;;;;32.17;18.67;;;;;;;1.34;100.00;99059.91;1565924;91;21563;-81
2022/02/10 10:56:09;;;;;;;28.60;18.90;;;;;;;1.39;100.00;99049.69;1568721;91;21166;-80
2022/02/10 11:03:40;;;;;;;22.57;15.43;;;;;;;1.42;100.00;99045.43;1541837;93;21083;-77
2022/02/10 11:04:04;;;;;;;24.73;15.60;;;;;;;1.47;100.00;99035.20;1541552;93;21121;-74
2022/02/10 11:38:27;;;;;;;51.30;30.40;;;;;;;1.83;100.00;98979.53;1634130;85;21051;-72
2022/02/10 11:41:24;;;;;;;36.83;23.60;;;;;;;1.87;100.00;98974.27;1634203;86;21063;-73
2022/02/10 12:29:27;;;;;;;30.20;21.00;;;;;;;2.51;100.00;98933.19;1544140;91;21133;-73
2022/02/10 13:49:05;;;;;;;30.70;19.77;;;;;;;3.03;100.00;98893.45;1646711;87;21091;-76
2022/02/10 14:18:07;;;;;;;44.17;31.67;;;;;;;3.05;100.00;98916.00;1650310;86;21591;-73
2022/02/10 14:26:07;;;;;;;29.67;19.57;;;;;;;3.08;100.00;98918.84;1619919;88;21108;-75
2022/02/10 14:28:30;;;;;;;29.80;20.33;;;;;;;3.08;100.00;98913.51;1647393;86;21620;-71
2022/02/10 14:31:04;;;;;;;31.70;21.00;;;;;;;3.07;100.00;98918.02;1692291;83;21590;-70
2022/02/10 14:33:34;;;;;;;30.07;20.53;;;;;;;3.07;100.00;98916.69;1756918;81;21024;-72
2022/02/10 14:36:09;;;;;;;30.93;21.43;;;;;;;3.08;100.00;98918.37;1741057;81;21035;-75
2022/02/10 15:21:42;;;;;;;39.93;25.53;;;;;;;2.88;100.00;98954.19;1745646;81;21063;-70
2022/02/10 16:17:59;;;;;;;35.90;21.70;;;;;;;2.29;100.00;99021.11;1674649;86;21049;-77
2022/02/10 16:20:30;;;;;;;34.73;19.90;;;;;;;2.27;100.00;99019.08;1675043;86;21098;-78
2022/02/10 16:23:00;;;;;;;35.23;20.20;;;;;;;2.23;100.00;99023.86;1671152;86;21046;-77
2022/02/10 16:25:35;;;;;;;36.30;20.60;;;;;;;2.22;100.00;99024.00;1674722;86;21022;-77
2022/02/10 16:28:19;;;;;;;33.50;19.10;;;;;;;2.18;100.00;99026.58;1674793;86;21061;-78
2022/02/10 16:30:38;;;;;;;37.10;22.07;;;;;;;2.14;100.00;99028.69;1671422;86;21046;-77
2022/02/10 16:33:05;;;;;;;33.60;21.17;;;;;;;2.11;100.00;99032.13;1674785;86;21053;-77
2022/02/10 16:35:32;;;;;;;30.03;18.80;;;;;;;2.10;100.00;99033.96;1674798;86;20990;-76
2022/02/10 16:37:59;;;;;;;33.63;19.37;;;;;;;2.12;100.00;99036.50;1674733;86;21476;-76
2022/02/10 16:40:26;;;;;;;32.00;19.90;;;;;;;2.13;100.00;99030.19;1674638;86;21006;-77
2022/02/10 16:42:53;;;;;;;30.60;19.13;;;;;;;2.14;100.00;99038.52;1675130;86;21085;-77
2022/02/10 16:45:20;;;;;;;30.50;18.97;;;;;;;2.14;100.00;99028.69;1675167;86;21061;-77
2022/02/10 16:47:47;;;;;;;30.93;19.07;;;;;;;2.14;100.00;99026.02;1675103;86;21132;-76
2022/02/10 16:50:15;;;;;;;31.23;19.60;;;;;;;2.16;100.00;99024.55;1721339;83;21076;-77
2022/02/10 16:52:48;;;;;;;29.73;18.70;;;;;;;2.16;100.00;99029.41;1738335;83;21022;-78
2022/02/10 16:58:01;;;;;;;36.43;23.40;;;;;;;2.18;100.00;99026.58;1738208;83;21038;-78
2022/02/10 17:03:05;;;;;;;35.23;22.13;;;;;;;2.18;100.00;99027.91;1738756;83;21014;-76
2022/02/10 17:19:36;;;;;;;26.43;16.53;;;;;;;2.24;100.00;99026.86;1755770;82;21047;-77
2022/02/10 17:27:25;;;;;;;27.67;17.43;;;;;;;2.25;100.00;99028.55;1755765;82;21086;-76
2022/02/10 17:46:12;;;;;;;27.47;16.63;;;;;;;2.26;100.00;99008.05;1669619;85;21040;-76
2022/02/10 17:51:38;;;;;;;27.87;17.57;;;;;;;2.24;100.00;99012.19;1669302;86;21115;-76
2022/02/10 17:53:58;;;;;;;29.90;19.13;;;;;;;2.25;100.00;99009.88;1665959;86;21035;-77
2022/02/10 17:56:25;;;;;;;30.40;19.57;;;;;;;2.24;100.00;99008.19;1669412;86;21035;-77
2022/02/10 17:58:52;;;;;;;28.43;18.53;;;;;;;2.25;100.00;99006.38;1669235;86;21051;-77
2022/02/10 18:01:20;;;;;;;31.90;20.77;;;;;;;2.25;100.00;99011.72;1669246;86;21084;-77
2022/02/10 18:03:47;;;;;;;29.20;18.37;;;;;;;2.25;100.00;99013.88;1669982;86;21020;-77
2022/02/10 18:06:23;;;;;;;27.00;17.63;;;;;;;2.25;100.00;99015.22;1670201;86;21001;-78
2022/02/10 18:16:49;;;;;;;28.40;17.40;;;;;;;2.21;100.00;99013.83;1668975;86;21037;-77
2022/02/10 18:19:22;;;;;;;28.60;18.50;;;;;;;2.21;100.00;99017.83;1665872;86;21052;-77
2022/02/10 19:09:46;;;;;;;28.93;17.47;;;;;;;2.23;100.00;99020.33;1637621;87;21032;-76
2022/02/10 19:12:17;;;;;;;28.87;18.27;;;;;;;2.25;100.00;99021.05;1647975;87;21141;-77
2022/02/10 19:14:52;;;;;;;26.73;17.30;;;;;;;2.25;100.00;99025.88;1647880;87;21051;-77
2022/02/10 19:17:14;;;;;;;28.33;17.80;;;;;;;2.25;100.00;99019.72;1647691;87;21148;-77
2022/02/10 19:19:41;;;;;;;30.73;18.63;;;;;;;2.27;100.00;99021.75;1677053;84;21043;-75
2022/02/10 19:22:08;;;;;;;27.50;17.63;;;;;;;2.28;100.00;99023.41;1710222;84;21513;-75
2022/02/10 19:24:35;;;;;;;27.47;16.87;;;;;;;2.28;100.00;99020.74;1710599;84;21525;-75
2022/02/10 19:27:02;;;;;;;27.10;16.70;;;;;;;2.29;100.00;99015.77;1710720;84;21520;-77
2022/02/10 19:29:29;;;;;;;25.90;16.33;;;;;;;2.31;100.00;99022.30;1710411;84;21036;-77
2022/02/10 19:31:56;;;;;;;26.93;17.37;;;;;;;2.31;100.00;99015.63;1710395;84;21068;-76
2022/02/10 19:34:24;;;;;;;25.90;16.23;;;;;;;2.31;100.00;99019.63;1710458;84;21568;-78
2022/02/10 19:36:53;;;;;;;27.87;17.00;;;;;;;2.32;100.00;99018.16;1710465;84;21063;-77
2022/02/10 19:39:22;;;;;;;26.77;17.23;;;;;;;2.33;100.00;99016.33;1710662;84;21090;-76
2022/02/10 19:41:50;;;;;;;27.23;16.80;;;;;;;2.36;100.00;99014.71;1705407;84;21011;-75
2022/02/10 19:44:17;;;;;;;30.50;18.93;;;;;;;2.36;100.00;99012.88;1702273;84;21008;-75
2022/02/10 19:46:44;;;;;;;29.87;18.77;;;;;;;2.36;100.00;99012.05;1732322;83;21006;-77
2022/02/10 19:49:18;;;;;;;28.90;18.57;;;;;;;2.35;100.00;99012.52;1732242;83;21018;-78
2022/02/10 19:51:42;;;;;;;28.70;17.87;;;;;;;2.36;100.00;99011.55;1727407;83;21030;-76
2022/02/10 19:54:22;;;;;;;28.17;17.90;;;;;;;2.36;100.00;99006.71;1732356;83;21019;-77
2022/02/10 19:56:44;;;;;;;28.53;17.47;;;;;;;2.35;100.00;99011.18;1727553;83;21018;-76
2022/02/10 19:59:16;;;;;;;29.27;17.60;;;;;;;2.35;100.00;99005.02;1732450;83;21097;-76
2022/02/10 20:01:40;;;;;;;30.60;18.20;;;;;;;2.32;100.00;98999.95;1727527;83;21022;-77
2022/02/10 20:04:09;;;;;;;33.17;20.03;;;;;;;2.32;100.00;99000.82;1732327;82;20991;-77
2022/02/10 20:06:36;;;;;;;33.67;20.03;;;;;;;2.32;100.00;99002.16;1732008;83;21070;-76
2022/02/10 20:09:03;;;;;;;33.47;19.17;;;;;;;2.32;100.00;99006.16;1732176;83;21086;-76
2022/02/10 20:11:31;;;;;;;28.60;17.47;;;;;;;2.30;100.00;99003.27;1752732;82;21071;-76
2022/02/10 20:13:58;;;;;;;25.63;15.77;;;;;;;2.31;100.00;99010.30;1752922;82;21155;-74
2022/02/10 20:16:25;;;;;;;26.13;16.10;;;;;;;2.30;100.00;99009.94;1753527;82;21055;-76
2022/02/10 20:18:52;;;;;;;27.23;16.07;;;;;;;2.30;100.00;99009.43;1753743;82;21000;-77
2022/02/10 20:21:19;;;;;;;29.60;17.77;;;;;;;2.31;100.00;99003.13;1753664;82;21032;-77
2022/02/10 20:23:46;;;;;;;31.57;17.93;;;;;;;2.34;100.00;99001.98;1722479;82;21032;-77
2022/02/10 20:26:14;;;;;;;29.00;17.40;;;;;;;2.34;100.00;99007.31;1753168;82;21079;-78
2022/02/10 20:28:43;;;;;;;30.97;18.57;;;;;;;2.35;100.00;99011.68;1753095;82;21111;-78
2022/02/10 20:31:11;;;;;;;30.73;18.37;;;;;;;2.36;100.00;98998.70;1753211;82;21050;-76
2022/02/10 20:33:38;;;;;;;32.70;19.87;;;;;;;2.36;100.00;99001.38;1753008;82;21565;-77
2022/02/10 20:36:06;;;;;;;32.13;18.37;;;;;;;2.34;100.00;99004.65;1752870;82;21076;-77
2022/02/10 20:38:36;;;;;;;30.87;19.13;;;;;;;2.31;100.00;99006.30;1753212;82;21442;-76
2022/02/10 20:41:06;;;;;;;32.77;19.87;;;;;;;2.30;100.00;99013.94;1754124;81;21060;-76
2022/02/10 20:43:32;;;;;;;32.67;19.80;;;;;;;2.29;100.00;99015.77;1763602;81;21039;-77
2022/02/10 20:46:05;;;;;;;34.57;19.93;;;;;;;2.27;100.00;99016.41;1764050;81;21068;-77
2022/02/10 20:48:33;;;;;;;30.15;18.30;;;;;;;2.27;100.00;99010.58;1763911;81;21028;-77
2022/02/10 20:51:01;;;;;;;26.13;16.60;;;;;;;2.26;100.00;99018.22;1764189;81;21015;-76
2022/02/10 20:53:30;;;;;;;28.33;17.17;;;;;;;2.26;100.00;99016.88;1763864;81;21059;-76
2022/02/10 20:56:00;;;;;;;29.63;18.30;;;;;;;2.27;100.00;99016.41;1763849;81;21086;-76
2022/02/10 20:58:29;;;;;;;28.57;18.13;;;;;;;2.28;100.00;99019.41;1763744;81;21034;-77
2022/02/10 21:00:59;;;;;;;28.33;17.83;;;;;;;2.27;100.00;99023.91;1764063;81;21052;-76
2022/02/10 21:03:35;;;;;;;28.47;17.30;;;;;;;2.26;100.00;99018.22;1764104;81;20984;-77
2022/02/10 21:08:51;;;;;;;28.47;18.10;;;;;;;2.21;100.00;99024.50;1764249;81;21027;-76
2022/02/10 21:11:11;;;;;;;29.33;17.47;;;;;;;2.18;100.00;99024.77;1757379;81;21007;-77
2022/02/10 21:13:39;;;;;;;31.67;18.43;;;;;;;2.16;100.00;99034.75;1761065;81;21095;-76
2022/02/10 21:16:06;;;;;;;32.23;20.17;;;;;;;2.15;100.00;99053.05;1761204;81;21059;-75
2022/02/10 21:18:35;;;;;;;32.30;20.70;;;;;;;2.14;100.00;99043.36;1761095;81;21000;-78
2022/02/10 21:21:21;;;;;;;31.73;21.17;;;;;;;2.14;100.00;99043.36;1761499;81;21038;-78
2022/02/10 21:26:18;;;;;;;29.90;19.10;;;;;;;2.14;100.00;99044.69;1761657;81;20968;-78
2022/02/10 21:28:44;;;;;;;28.77;17.53;;;;;;;2.16;100.00;99048.08;1760958;81;21467;-77
2022/02/10 21:31:11;;;;;;;28.73;17.97;;;;;;;2.18;100.00;99040.78;1761502;81;21079;-76
2022/02/10 22:11:25;;;;;;;26.83;16.03;;;;;;;2.07;100.00;99039.10;1519471;94;21062;-78
2022/02/10 22:19:07;;;;;;;39.37;22.67;;;;;;;2.01;100.00;99034.81;1532805;91;21116;-76
2022/02/10 22:21:29;;;;;;;42.40;23.40;;;;;;;2.00;100.00;99041.13;1560442;92;21082;-78
2022/02/10 22:23:56;;;;;;;43.40;25.47;;;;;;;1.98;100.00;99039.92;1560311;92;21118;-77
2022/02/10 22:26:27;;;;;;;42.87;24.70;;;;;;;1.96;100.00;99037.89;1560280;92;21043;-77
2022/02/10 22:31:27;;;;;;;41.20;22.87;;;;;;;1.95;100.00;99039.36;1589120;86;21010;-77
2022/02/10 22:34:04;;;;;;;37.53;21.47;;;;;;;1.96;100.00;99045.06;1658778;85;21070;-77
2022/02/10 22:36:22;;;;;;;33.08;18.90;;;;;;;1.94;100.00;99049.20;1658894;86;21616;-78
2022/02/10 22:39:01;;;;;;;34.57;18.93;;;;;;;1.92;100.00;99047.67;1660333;86;21054;-77
2022/02/10 22:41:24;;;;;;;33.07;19.10;;;;;;;1.90;100.00;99047.30;1660403;86;21066;-77
2022/02/10 22:43:52;;;;;;;28.03;16.40;;;;;;;1.92;100.00;99038.34;1668005;86;21093;-77
2022/02/10 22:46:20;;;;;;;26.93;16.40;;;;;;;1.92;100.00;99037.00;1668184;86;21560;-77
2022/02/10 22:48:48;;;;;;;28.80;16.50;;;;;;;1.93;100.00;99042.67;1668233;86;21101;-77
2022/02/10 22:51:18;;;;;;;29.33;17.83;;;;;;;1.95;100.00;99046.03;1667930;86;21062;-77
2022/02/10 22:53:45;;;;;;;30.90;17.87;;;;;;;1.95;100.00;99048.70;1712271;82;21002;-77
2022/02/10 22:56:14;;;;;;;29.80;17.60;;;;;;;1.95;100.00;99054.89;1746016;82;21010;-77
2022/02/10 22:58:41;;;;;;;30.93;18.67;;;;;;;1.95;100.00;99056.23;1746054;82;21079;-77
2022/02/10 23:01:13;;;;;;;29.07;18.60;;;;;;;1.95;100.00;99056.69;1745660;82;21057;-76
2022/02/10 23:03:41;;;;;;;31.60;19.97;;;;;;;1.92;100.00;99056.50;1745868;82;21065;-77
2022/02/10 23:06:11;;;;;;;33.30;19.90;;;;;;;1.93;100.00;99062.66;1745560;82;21021;-76
2022/02/10 23:08:38;;;;;;;33.60;20.97;;;;;;;1.94;100.00;99064.36;1745721;82;21021;-76
2022/02/10 23:11:05;;;;;;;33.43;21.13;;;;;;;1.94;100.00;99063.03;1742316;82;20994;-77
2022/02/10 23:13:33;;;;;;;31.13;19.77;;;;;;;1.96;100.00;99064.56;1741138;82;21053;-76
2022/02/10 23:16:03;;;;;;;31.27;19.27;;;;;;;1.96;100.00;99056.56;1740719;82;21100;-77
2022/02/10 23:18:34;;;;;;;31.57;19.97;;;;;;;1.97;100.00;99062.76;1740793;82;21045;-78
2022/02/10 23:21:05;;;;;;;30.07;19.03;;;;;;;1.98;100.00;99069.25;1741093;82;21562;-78
2022/02/10 23:23:34;;;;;;;33.17;19.93;;;;;;;2.00;100.00;99073.98;1618991;88;21081;-77
2022/02/10 23:26:01;;;;;;;29.43;19.20;;;;;;;2.02;100.00;99079.15;1618915;89;21172;-77
2022/02/10 23:28:33;;;;;;;31.03;19.20;;;;;;;2.03;100.00;99076.34;1619018;89;21069;-76
2022/02/10 23:31:03;;;;;;;30.62;19.05;;;;;;;2.02;100.00;99071.15;1515629;95;21105;-77
2022/02/10 23:33:31;;;;;;;33.33;19.70;;;;;;;2.03;100.00;99075.52;1515721;95;21332;-77
2022/02/10 23:38:50;;;;;;;29.20;18.70;;;;;;;2.02;100.00;99073.34;1518305;95;21110;-77
2022/02/10 23:43:46;;;;;;;32.50;19.93;;;;;;;1.99;100.00;99075.45;1490536;96;21580;-77
2022/02/10 23:46:13;;;;;;;33.13;20.57;;;;;;;1.96;100.00;99069.89;1494494;96;21063;-77
2022/02/10 23:48:40;;;;;;;32.60;19.93;;;;;;;1.94;100.00;99073.19;1527247;94;21125;-77
2022/02/10 23:51:07;;;;;;;33.77;21.53;;;;;;;1.94;100.00;99078.52;1490664;96;21035;-76
2022/02/10 23:53:34;;;;;;;33.77;20.57;;;;;;;1.94;100.00;99081.69;1494489;96;21106;-78
2022/02/10 23:56:04;;;;;;;33.30;21.07;;;;;;;1.92;100.00;99073.83;1527269;94;21131;-77
